sensor_id;sensor_type;location;lat;lon;timestamp;temperature;humidity
10123;DHT22;5101;49.038;8.710;2022-07-01T00:01:37;16.10;99.90
10123;DHT22;5101;49.038;8.710;2022-07-01T00:04:02;16.10;99.90
10123;DHT22;5101;49.038;8.710;2022-07-01T00:06:28;16.20;99.90
10123;DHT22;5101;49.038;8.710;2022-07-01T00:08:54;16.20;99.90
10123;DHT22;5101;49.038;8.710;2022-07-01T00:11:19;16.20;99.90
10123;DHT22;5101;49.038;8.710;2022-07-01T00:13:45;16.20;99.90
10123;DHT22;5101;49.038;8.710;2022-07-01T00:16:11;16.20;99.90
10123;DHT22;5101;49.038;8.710;2022-07-01T00:18:36;16.10;99.90
10123;DHT22;5101;49.038;8.710;2022-07-01T00:21:02;16.10;99.90
10123;DHT22;5101;49.038;8.710;2022-07-01T00:23:28;16.10;99.90
10123;DHT22;5101;49.038;8.710;2022-07-01T00:25:54;16.20;99.90
10123;DHT22;5101;49.038;8.710;2022-07-01T00:28:20;16.10;99.90
10123;DHT22;5101;49.038;8.710;2022-07-01T00:30:45;16.10;99.90
10123;DHT22;5101;49.038;8.710;2022-07-01T00:33:11;16.10;99.90
10123;DHT22;5101;49.038;8.710;2022-07-01T00:35:36;16.10;99.90
10123;DHT22;5101;49.038;8.710;2022-07-01T00:38:03;16.10;99.90
10123;DHT22;5101;49.038;8.710;2022-07-01T00:40:28;16.00;99.90
10123;DHT22;5101;49.038;8.710;2022-07-01T00:42:54;16.00;99.90
10123;DHT22;5101;49.038;8.710;2022-07-01T00:45:19;16.00;99.90
10123;DHT22;5101;49.038;8.710;2022-07-01T00:47:45;16.00;99.90
10123;DHT22;5101;49.038;8.710;2022-07-01T00:50:13;16.10;99.90
10123;DHT22;5101;49.038;8.710;2022-07-01T00:52:40;16.00;99.90
10123;DHT22;5101;49.038;8.710;2022-07-01T00:55:08;16.10;99.90
10123;DHT22;5101;49.038;8.710;2022-07-01T00:57:35;16.10;99.90
10123;DHT22;5101;49.038;8.710;2022-07-01T01:00:05;16.10;99.90
10123;DHT22;5101;49.038;8.710;2022-07-01T01:02:31;16.10;99.90
10123;DHT22;5101;49.038;8.710;2022-07-01T01:04:56;16.10;99.90
10123;DHT22;5101;49.038;8.710;2022-07-01T01:07:22;16.10;99.90
10123;DHT22;5101;49.038;8.710;2022-07-01T01:09:48;16.10;99.90
10123;DHT22;5101;49.038;8.710;2022-07-01T01:12:14;16.10;99.90
10123;DHT22;5101;49.038;8.710;2022-07-01T01:14:47;16.10;99.90
10123;DHT22;5101;49.038;8.710;2022-07-01T01:17:14;16.10;99.90
10123;DHT22;5101;49.038;8.710;2022-07-01T01:19:41;16.10;99.90
10123;DHT22;5101;49.038;8.710;2022-07-01T01:22:07;16.00;99.90
10123;DHT22;5101;49.038;8.710;2022-07-01T01:24:33;16.00;99.90
10123;DHT22;5101;49.038;8.710;2022-07-01T01:26:58;16.00;99.90
10123;DHT22;5101;49.038;8.710;2022-07-01T01:29:24;16.10;99.90
10123;DHT22;5101;49.038;8.710;2022-07-01T01:31:49;16.10;99.90
10123;DHT22;5101;49.038;8.710;2022-07-01T01:34:15;16.10;99.90
10123;DHT22;5101;49.038;8.710;2022-07-01T01:36:41;16.10;99.90
10123;DHT22;5101;49.038;8.710;2022-07-01T01:39:06;16.20;99.90
10123;DHT22;5101;49.038;8.710;2022-07-01T01:41:32;16.20;99.90
10123;DHT22;5101;49.038;8.710;2022-07-01T01:43:57;16.10;99.90
10123;DHT22;5101;49.038;8.710;2022-07-01T01:46:22;16.10;99.90
10123;DHT22;5101;49.038;8.710;2022-07-01T01:48:48;16.10;99.90
10123;DHT22;5101;49.038;8.710;2022-07-01T01:51:13;16.10;99.90
10123;DHT22;5101;49.038;8.710;2022-07-01T01:53:39;16.10;99.90
10123;DHT22;5101;49.038;8.710;2022-07-01T01:56:05;16.10;99.90
10123;DHT22;5101;49.038;8.710;2022-07-01T01:58:30;16.10;99.90
10123;DHT22;5101;49.038;8.710;2022-07-01T02:00:56;16.10;99.90
10123;DHT22;5101;49.038;8.710;2022-07-01T02:03:21;16.10;99.90
10123;DHT22;5101;49.038;8.710;2022-07-01T02:05:47;16.00;99.90
10123;DHT22;5101;49.038;8.710;2022-07-01T02:08:12;16.00;99.90
10123;DHT22;5101;49.038;8.710;2022-07-01T02:10:38;15.90;99.90
10123;DHT22;5101;49.038;8.710;2022-07-01T02:13:03;16.00;99.90
10123;DHT22;5101;49.038;8.710;2022-07-01T02:15:29;15.90;99.90
10123;DHT22;5101;49.038;8.710;2022-07-01T02:17:55;16.00;99.90
10123;DHT22;5101;49.038;8.710;2022-07-01T02:20:21;16.00;99.90
10123;DHT22;5101;49.038;8.710;2022-07-01T02:22:47;16.00;99.90
10123;DHT22;5101;49.038;8.710;2022-07-01T02:25:12;15.90;99.90
10123;DHT22;5101;49.038;8.710;2022-07-01T02:27:38;15.80;99.90
10123;DHT22;5101;49.038;8.710;2022-07-01T02:30:05;15.90;99.90
10123;DHT22;5101;49.038;8.710;2022-07-01T02:32:31;15.90;99.90
10123;DHT22;5101;49.038;8.710;2022-07-01T02:34:57;15.90;99.90
10123;DHT22;5101;49.038;8.710;2022-07-01T02:37:23;15.80;99.90
10123;DHT22;5101;49.038;8.710;2022-07-01T02:39:48;15.90;99.90
10123;DHT22;5101;49.038;8.710;2022-07-01T02:42:14;15.80;99.90
10123;DHT22;5101;49.038;8.710;2022-07-01T02:44:48;15.80;99.90
10123;DHT22;5101;49.038;8.710;2022-07-01T02:47:14;15.70;99.90
10123;DHT22;5101;49.038;8.710;2022-07-01T02:49:39;15.70;99.90
10123;DHT22;5101;49.038;8.710;2022-07-01T02:52:05;15.70;99.90
10123;DHT22;5101;49.038;8.710;2022-07-01T02:54:31;15.70;99.90
10123;DHT22;5101;49.038;8.710;2022-07-01T02:56:56;15.70;99.90
10123;DHT22;5101;49.038;8.710;2022-07-01T02:59:22;15.60;99.90
10123;DHT22;5101;49.038;8.710;2022-07-01T03:01:47;15.60;99.90
10123;DHT22;5101;49.038;8.710;2022-07-01T03:04:13;15.60;99.90
10123;DHT22;5101;49.038;8.710;2022-07-01T03:06:39;15.50;99.90
10123;DHT22;5101;49.038;8.710;2022-07-01T03:09:06;15.50;99.90
10123;DHT22;5101;49.038;8.710;2022-07-01T03:11:31;15.60;99.90
10123;DHT22;5101;49.038;8.710;2022-07-01T03:13:57;15.50;99.90
10123;DHT22;5101;49.038;8.710;2022-07-01T03:16:22;15.40;99.90
10123;DHT22;5101;49.038;8.710;2022-07-01T03:18:48;15.40;99.90
10123;DHT22;5101;49.038;8.710;2022-07-01T03:21:14;15.40;99.90
10123;DHT22;5101;49.038;8.710;2022-07-01T03:23:39;15.40;99.90
10123;DHT22;5101;49.038;8.710;2022-07-01T03:26:04;15.40;99.90
10123;DHT22;5101;49.038;8.710;2022-07-01T03:28:30;15.40;99.90
10123;DHT22;5101;49.038;8.710;2022-07-01T03:30:57;15.40;99.90
10123;DHT22;5101;49.038;8.710;2022-07-01T03:33:22;15.50;99.90
10123;DHT22;5101;49.038;8.710;2022-07-01T03:35:48;15.50;99.90
10123;DHT22;5101;49.038;8.710;2022-07-01T03:38:13;15.40;99.90
10123;DHT22;5101;49.038;8.710;2022-07-01T03:40:39;15.40;99.90
10123;DHT22;5101;49.038;8.710;2022-07-01T03:43:05;15.40;99.90
10123;DHT22;5101;49.038;8.710;2022-07-01T03:45:31;15.40;99.90
10123;DHT22;5101;49.038;8.710;2022-07-01T03:47:57;15.40;99.90
10123;DHT22;5101;49.038;8.710;2022-07-01T03:50:24;15.40;99.90
10123;DHT22;5101;49.038;8.710;2022-07-01T03:52:50;15.30;99.90
10123;DHT22;5101;49.038;8.710;2022-07-01T03:55:35;15.30;99.90
10123;DHT22;5101;49.038;8.710;2022-07-01T03:58:00;15.30;99.90
10123;DHT22;5101;49.038;8.710;2022-07-01T04:00:26;15.30;99.90
10123;DHT22;5101;49.038;8.710;2022-07-01T04:02:52;15.20;99.90
10123;DHT22;5101;49.038;8.710;2022-07-01T04:05:18;15.30;99.90
10123;DHT22;5101;49.038;8.710;2022-07-01T04:07:43;15.30;99.90
10123;DHT22;5101;49.038;8.710;2022-07-01T04:10:09;15.30;99.90
10123;DHT22;5101;49.038;8.710;2022-07-01T04:12:35;15.30;99.90
10123;DHT22;5101;49.038;8.710;2022-07-01T04:15:01;15.30;99.90
10123;DHT22;5101;49.038;8.710;2022-07-01T04:17:27;15.30;99.90
10123;DHT22;5101;49.038;8.710;2022-07-01T04:19:52;15.20;99.90
10123;DHT22;5101;49.038;8.710;2022-07-01T04:22:18;15.20;99.90
10123;DHT22;5101;49.038;8.710;2022-07-01T04:25:01;15.20;99.90
10123;DHT22;5101;49.038;8.710;2022-07-01T04:27:30;15.30;99.90
10123;DHT22;5101;49.038;8.710;2022-07-01T04:29:55;15.30;99.90
10123;DHT22;5101;49.038;8.710;2022-07-01T04:32:22;15.40;99.90
10123;DHT22;5101;49.038;8.710;2022-07-01T04:34:48;15.40;99.90
10123;DHT22;5101;49.038;8.710;2022-07-01T04:37:13;15.50;99.90
10123;DHT22;5101;49.038;8.710;2022-07-01T04:39:39;15.50;99.90
10123;DHT22;5101;49.038;8.710;2022-07-01T04:42:05;15.50;99.90
10123;DHT22;5101;49.038;8.710;2022-07-01T04:44:32;15.50;99.90
10123;DHT22;5101;49.038;8.710;2022-07-01T04:46:59;15.50;99.90
10123;DHT22;5101;49.038;8.710;2022-07-01T04:49:25;15.50;99.90
10123;DHT22;5101;49.038;8.710;2022-07-01T04:51:51;15.50;99.90
10123;DHT22;5101;49.038;8.710;2022-07-01T04:54:17;15.50;99.90
10123;DHT22;5101;49.038;8.710;2022-07-01T04:56:44;15.50;99.90
10123;DHT22;5101;49.038;8.710;2022-07-01T04:59:10;15.50;99.90
10123;DHT22;5101;49.038;8.710;2022-07-01T05:01:35;15.50;99.90
10123;DHT22;5101;49.038;8.710;2022-07-01T05:04:01;15.50;99.90
10123;DHT22;5101;49.038;8.710;2022-07-01T05:06:26;15.60;99.90
10123;DHT22;5101;49.038;8.710;2022-07-01T05:08:52;15.50;99.90
10123;DHT22;5101;49.038;8.710;2022-07-01T05:11:18;15.60;99.90
10123;DHT22;5101;49.038;8.710;2022-07-01T05:13:43;15.60;99.90
10123;DHT22;5101;49.038;8.710;2022-07-01T05:16:09;15.60;99.90
10123;DHT22;5101;49.038;8.710;2022-07-01T05:18:38;15.70;99.90
10123;DHT22;5101;49.038;8.710;2022-07-01T05:21:23;15.70;99.90
10123;DHT22;5101;49.038;8.710;2022-07-01T05:24:07;15.70;99.90
10123;DHT22;5101;49.038;8.710;2022-07-01T05:26:33;15.80;99.90
10123;DHT22;5101;49.038;8.710;2022-07-01T05:28:58;15.80;99.90
10123;DHT22;5101;49.038;8.710;2022-07-01T05:31:24;15.70;99.90
10123;DHT22;5101;49.038;8.710;2022-07-01T05:33:49;15.70;99.90
10123;DHT22;5101;49.038;8.710;2022-07-01T05:36:15;15.70;99.90
10123;DHT22;5101;49.038;8.710;2022-07-01T05:38:41;15.70;99.90
10123;DHT22;5101;49.038;8.710;2022-07-01T05:41:07;15.70;99.90
10123;DHT22;5101;49.038;8.710;2022-07-01T05:43:33;15.60;99.90
10123;DHT22;5101;49.038;8.710;2022-07-01T05:45:59;15.60;99.90
10123;DHT22;5101;49.038;8.710;2022-07-01T05:48:25;15.60;99.90
10123;DHT22;5101;49.038;8.710;2022-07-01T05:50:51;15.60;99.90
10123;DHT22;5101;49.038;8.710;2022-07-01T05:53:17;15.70;99.90
10123;DHT22;5101;49.038;8.710;2022-07-01T05:55:43;15.60;99.90
10123;DHT22;5101;49.038;8.710;2022-07-01T05:58:10;15.60;99.90
10123;DHT22;5101;49.038;8.710;2022-07-01T06:00:36;15.60;99.90
10123;DHT22;5101;49.038;8.710;2022-07-01T06:03:03;15.60;99.90
10123;DHT22;5101;49.038;8.710;2022-07-01T06:05:28;15.60;99.90
10123;DHT22;5101;49.038;8.710;2022-07-01T06:07:55;15.60;99.90
10123;DHT22;5101;49.038;8.710;2022-07-01T06:10:21;15.60;99.90
10123;DHT22;5101;49.038;8.710;2022-07-01T06:12:46;15.60;99.90
10123;DHT22;5101;49.038;8.710;2022-07-01T06:15:12;15.50;99.90
10123;DHT22;5101;49.038;8.710;2022-07-01T06:17:39;15.50;99.90
10123;DHT22;5101;49.038;8.710;2022-07-01T06:20:06;15.50;99.90
10123;DHT22;5101;49.038;8.710;2022-07-01T06:22:32;15.50;99.90
10123;DHT22;5101;49.038;8.710;2022-07-01T06:24:58;15.50;99.90
10123;DHT22;5101;49.038;8.710;2022-07-01T06:27:24;15.50;99.90
10123;DHT22;5101;49.038;8.710;2022-07-01T06:29:50;15.40;99.90
10123;DHT22;5101;49.038;8.710;2022-07-01T06:32:15;15.50;99.90
10123;DHT22;5101;49.038;8.710;2022-07-01T06:34:41;15.50;99.90
10123;DHT22;5101;49.038;8.710;2022-07-01T06:37:06;15.50;99.90
10123;DHT22;5101;49.038;8.710;2022-07-01T06:39:32;15.50;99.90
10123;DHT22;5101;49.038;8.710;2022-07-01T06:41:57;15.50;99.90
10123;DHT22;5101;49.038;8.710;2022-07-01T06:44:23;15.50;99.90
10123;DHT22;5101;49.038;8.710;2022-07-01T06:46:48;15.50;99.90
10123;DHT22;5101;49.038;8.710;2022-07-01T06:49:14;15.50;99.90
10123;DHT22;5101;49.038;8.710;2022-07-01T06:51:40;15.40;99.90
10123;DHT22;5101;49.038;8.710;2022-07-01T06:54:06;15.50;99.90
10123;DHT22;5101;49.038;8.710;2022-07-01T06:56:32;15.50;99.90
10123;DHT22;5101;49.038;8.710;2022-07-01T06:58:57;15.50;99.90
10123;DHT22;5101;49.038;8.710;2022-07-01T07:01:23;15.60;99.90
10123;DHT22;5101;49.038;8.710;2022-07-01T07:03:49;15.70;99.90
10123;DHT22;5101;49.038;8.710;2022-07-01T07:06:15;15.70;99.90
10123;DHT22;5101;49.038;8.710;2022-07-01T07:08:41;15.70;99.90
10123;DHT22;5101;49.038;8.710;2022-07-01T07:11:07;15.70;99.90
10123;DHT22;5101;49.038;8.710;2022-07-01T07:13:34;15.70;99.90
10123;DHT22;5101;49.038;8.710;2022-07-01T07:16:00;15.80;99.90
10123;DHT22;5101;49.038;8.710;2022-07-01T07:18:25;15.80;99.90
10123;DHT22;5101;49.038;8.710;2022-07-01T07:20:51;15.80;99.90
10123;DHT22;5101;49.038;8.710;2022-07-01T07:23:16;15.90;99.90
10123;DHT22;5101;49.038;8.710;2022-07-01T07:25:42;15.90;99.90
10123;DHT22;5101;49.038;8.710;2022-07-01T07:28:07;16.00;99.90
10123;DHT22;5101;49.038;8.710;2022-07-01T07:30:33;16.00;99.90
10123;DHT22;5101;49.038;8.710;2022-07-01T07:32:58;16.00;99.90
10123;DHT22;5101;49.038;8.710;2022-07-01T07:35:24;16.00;99.90
10123;DHT22;5101;49.038;8.710;2022-07-01T07:37:49;16.00;99.90
10123;DHT22;5101;49.038;8.710;2022-07-01T07:40:15;16.10;99.90
10123;DHT22;5101;49.038;8.710;2022-07-01T07:42:45;16.20;99.90
10123;DHT22;5101;49.038;8.710;2022-07-01T07:45:10;16.20;99.90
10123;DHT22;5101;49.038;8.710;2022-07-01T07:47:37;16.20;99.90
10123;DHT22;5101;49.038;8.710;2022-07-01T07:50:04;16.20;99.90
10123;DHT22;5101;49.038;8.710;2022-07-01T07:52:30;16.20;99.90
10123;DHT22;5101;49.038;8.710;2022-07-01T07:54:55;16.30;99.90
10123;DHT22;5101;49.038;8.710;2022-07-01T07:57:21;16.30;99.90
10123;DHT22;5101;49.038;8.710;2022-07-01T07:59:47;16.30;99.90
10123;DHT22;5101;49.038;8.710;2022-07-01T08:02:12;16.30;99.90
10123;DHT22;5101;49.038;8.710;2022-07-01T08:04:38;16.30;99.90
10123;DHT22;5101;49.038;8.710;2022-07-01T08:07:03;16.40;99.90
10123;DHT22;5101;49.038;8.710;2022-07-01T08:09:29;16.40;99.90
10123;DHT22;5101;49.038;8.710;2022-07-01T08:11:54;16.40;99.90
10123;DHT22;5101;49.038;8.710;2022-07-01T08:14:20;16.50;99.90
10123;DHT22;5101;49.038;8.710;2022-07-01T08:16:46;16.50;99.90
10123;DHT22;5101;49.038;8.710;2022-07-01T08:19:12;16.50;99.90
10123;DHT22;5101;49.038;8.710;2022-07-01T08:21:37;16.50;99.90
10123;DHT22;5101;49.038;8.710;2022-07-01T08:24:03;16.50;99.90
10123;DHT22;5101;49.038;8.710;2022-07-01T08:26:29;16.60;99.90
10123;DHT22;5101;49.038;8.710;2022-07-01T08:28:55;16.60;99.90
10123;DHT22;5101;49.038;8.710;2022-07-01T08:31:21;16.70;99.90
10123;DHT22;5101;49.038;8.710;2022-07-01T08:33:46;16.70;99.90
10123;DHT22;5101;49.038;8.710;2022-07-01T08:36:12;16.70;99.90
10123;DHT22;5101;49.038;8.710;2022-07-01T08:38:39;16.70;99.90
10123;DHT22;5101;49.038;8.710;2022-07-01T08:41:05;16.70;99.90
10123;DHT22;5101;49.038;8.710;2022-07-01T08:43:30;16.70;99.90
10123;DHT22;5101;49.038;8.710;2022-07-01T08:45:58;16.60;99.90
10123;DHT22;5101;49.038;8.710;2022-07-01T08:48:24;16.70;99.90
10123;DHT22;5101;49.038;8.710;2022-07-01T08:50:50;16.70;99.90
10123;DHT22;5101;49.038;8.710;2022-07-01T08:53:15;16.60;99.90
10123;DHT22;5101;49.038;8.710;2022-07-01T08:55:41;16.60;99.90
10123;DHT22;5101;49.038;8.710;2022-07-01T08:58:27;16.60;99.90
10123;DHT22;5101;49.038;8.710;2022-07-01T09:00:53;16.60;99.90
10123;DHT22;5101;49.038;8.710;2022-07-01T09:03:36;16.50;99.90
10123;DHT22;5101;49.038;8.710;2022-07-01T09:06:02;16.60;99.90
10123;DHT22;5101;49.038;8.710;2022-07-01T09:08:27;16.60;99.90
10123;DHT22;5101;49.038;8.710;2022-07-01T09:10:53;16.70;99.90
10123;DHT22;5101;49.038;8.710;2022-07-01T09:13:19;16.80;99.90
10123;DHT22;5101;49.038;8.710;2022-07-01T09:15:44;16.90;99.90
10123;DHT22;5101;49.038;8.710;2022-07-01T09:18:11;17.00;99.90
10123;DHT22;5101;49.038;8.710;2022-07-01T09:20:47;17.00;99.90
10123;DHT22;5101;49.038;8.710;2022-07-01T09:23:17;17.20;99.90
10123;DHT22;5101;49.038;8.710;2022-07-01T09:25:46;17.30;99.90
10123;DHT22;5101;49.038;8.710;2022-07-01T09:28:14;17.40;99.90
10123;DHT22;5101;49.038;8.710;2022-07-01T09:30:46;17.50;99.90
10123;DHT22;5101;49.038;8.710;2022-07-01T09:33:17;17.50;99.90
10123;DHT22;5101;49.038;8.710;2022-07-01T09:35:45;17.50;99.90
10123;DHT22;5101;49.038;8.710;2022-07-01T09:38:13;17.60;99.90
10123;DHT22;5101;49.038;8.710;2022-07-01T09:40:57;17.70;99.90
10123;DHT22;5101;49.038;8.710;2022-07-01T09:43:25;17.80;99.90
10123;DHT22;5101;49.038;8.710;2022-07-01T09:46:10;17.90;99.90
10123;DHT22;5101;49.038;8.710;2022-07-01T09:51:05;18.20;99.90
10123;DHT22;5101;49.038;8.710;2022-07-01T09:53:32;18.30;99.90
10123;DHT22;5101;49.038;8.710;2022-07-01T09:55:58;18.40;99.90
10123;DHT22;5101;49.038;8.710;2022-07-01T09:58:24;18.40;99.90
10123;DHT22;5101;49.038;8.710;2022-07-01T10:00:51;18.50;99.90
10123;DHT22;5101;49.038;8.710;2022-07-01T10:03:18;18.60;99.90
10123;DHT22;5101;49.038;8.710;2022-07-01T10:11:23;18.80;99.90
10123;DHT22;5101;49.038;8.710;2022-07-01T10:13:51;19.10;99.90
10123;DHT22;5101;49.038;8.710;2022-07-01T10:16:17;19.40;99.90
10123;DHT22;5101;49.038;8.710;2022-07-01T10:18:43;19.60;99.90
10123;DHT22;5101;49.038;8.710;2022-07-01T10:21:09;19.80;99.90
10123;DHT22;5101;49.038;8.710;2022-07-01T10:23:50;20.00;99.90
10123;DHT22;5101;49.038;8.710;2022-07-01T10:26:17;20.20;99.90
10123;DHT22;5101;49.038;8.710;2022-07-01T10:28:44;20.30;99.90
10123;DHT22;5101;49.038;8.710;2022-07-01T10:31:15;20.50;99.90
10123;DHT22;5101;49.038;8.710;2022-07-01T10:33:48;20.70;99.90
10123;DHT22;5101;49.038;8.710;2022-07-01T10:36:30;20.70;99.70
10123;DHT22;5101;49.038;8.710;2022-07-01T10:41:26;20.90;98.50
10123;DHT22;5101;49.038;8.710;2022-07-01T10:43:54;21.00;98.00
10123;DHT22;5101;49.038;8.710;2022-07-01T10:46:54;21.00;97.30
10123;DHT22;5101;49.038;8.710;2022-07-01T10:52:09;21.10;96.30
10123;DHT22;5101;49.038;8.710;2022-07-01T10:59:48;21.10;95.80
10123;DHT22;5101;49.038;8.710;2022-07-01T11:02:38;21.20;95.80
10123;DHT22;5101;49.038;8.710;2022-07-01T11:05:15;21.20;95.20
10123;DHT22;5101;49.038;8.710;2022-07-01T11:07:45;21.20;94.60
10123;DHT22;5101;49.038;8.710;2022-07-01T11:10:13;21.30;94.60
10123;DHT22;5101;49.038;8.710;2022-07-01T11:12:41;21.30;94.10
10123;DHT22;5101;49.038;8.710;2022-07-01T11:15:10;21.30;93.50
10123;DHT22;5101;49.038;8.710;2022-07-01T11:17:42;21.40;93.30
10123;DHT22;5101;49.038;8.710;2022-07-01T11:20:08;21.60;92.70
10123;DHT22;5101;49.038;8.710;2022-07-01T11:22:35;21.70;92.90
10123;DHT22;5101;49.038;8.710;2022-07-01T11:25:05;21.90;93.00
10123;DHT22;5101;49.038;8.710;2022-07-01T11:27:31;22.10;93.00
10123;DHT22;5101;49.038;8.710;2022-07-01T11:29:59;22.40;92.90
10123;DHT22;5101;49.038;8.710;2022-07-01T11:34:51;22.60;90.80
10123;DHT22;5101;49.038;8.710;2022-07-01T11:37:17;22.50;90.40
10123;DHT22;5101;49.038;8.710;2022-07-01T11:40:08;22.80;90.50
10123;DHT22;5101;49.038;8.710;2022-07-01T11:42:35;22.70;90.50
10123;DHT22;5101;49.038;8.710;2022-07-01T11:45:01;22.60;90.00
10123;DHT22;5101;49.038;8.710;2022-07-01T11:47:27;22.60;89.60
10123;DHT22;5101;49.038;8.710;2022-07-01T11:49:53;22.50;88.30
10123;DHT22;5101;49.038;8.710;2022-07-01T11:52:20;22.60;88.60
10123;DHT22;5101;49.038;8.710;2022-07-01T11:54:51;22.80;88.20
10123;DHT22;5101;49.038;8.710;2022-07-01T11:57:19;23.00;86.80
10123;DHT22;5101;49.038;8.710;2022-07-01T11:59:46;23.20;86.30
10123;DHT22;5101;49.038;8.710;2022-07-01T12:02:13;23.20;86.50
10123;DHT22;5101;49.038;8.710;2022-07-01T12:04:42;23.20;86.00
10123;DHT22;5101;49.038;8.710;2022-07-01T12:07:09;23.30;84.70
10123;DHT22;5101;49.038;8.710;2022-07-01T12:09:36;23.60;84.40
10123;DHT22;5101;49.038;8.710;2022-07-01T12:12:02;23.80;84.10
10123;DHT22;5101;49.038;8.710;2022-07-01T12:14:33;24.10;83.90
10123;DHT22;5101;49.038;8.710;2022-07-01T12:17:06;24.40;82.10
10123;DHT22;5101;49.038;8.710;2022-07-01T12:19:42;24.50;75.70
10123;DHT22;5101;49.038;8.710;2022-07-01T12:22:10;24.50;75.80
10123;DHT22;5101;49.038;8.710;2022-07-01T12:24:36;24.50;76.50
10123;DHT22;5101;49.038;8.710;2022-07-01T12:27:04;24.50;76.00
10123;DHT22;5101;49.038;8.710;2022-07-01T12:32:14;24.80;76.70
10123;DHT22;5101;49.038;8.710;2022-07-01T12:34:45;24.90;76.70
10123;DHT22;5101;49.038;8.710;2022-07-01T12:37:20;24.90;77.40
10123;DHT22;5101;49.038;8.710;2022-07-01T12:39:49;24.90;75.80
10123;DHT22;5101;49.038;8.710;2022-07-01T12:42:32;24.80;72.60
10123;DHT22;5101;49.038;8.710;2022-07-01T12:45:08;24.70;71.30
10123;DHT22;5101;49.038;8.710;2022-07-01T12:47:36;24.80;70.40
10123;DHT22;5101;49.038;8.710;2022-07-01T12:50:24;24.70;70.90
10123;DHT22;5101;49.038;8.710;2022-07-01T12:53:19;24.80;72.00
10123;DHT22;5101;49.038;8.710;2022-07-01T12:55:47;24.90;71.90
10123;DHT22;5101;49.038;8.710;2022-07-01T12:58:16;25.00;71.30
10123;DHT22;5101;49.038;8.710;2022-07-01T13:00:44;25.00;69.00
10123;DHT22;5101;49.038;8.710;2022-07-01T13:03:10;25.00;68.00
10123;DHT22;5101;49.038;8.710;2022-07-01T13:05:37;25.10;68.90
10123;DHT22;5101;49.038;8.710;2022-07-01T13:08:05;25.10;68.20
10123;DHT22;5101;49.038;8.710;2022-07-01T13:10:31;25.10;67.50
10123;DHT22;5101;49.038;8.710;2022-07-01T13:12:57;25.10;67.60
10123;DHT22;5101;49.038;8.710;2022-07-01T13:15:22;25.20;69.00
10123;DHT22;5101;49.038;8.710;2022-07-01T13:17:48;25.20;66.90
10123;DHT22;5101;49.038;8.710;2022-07-01T13:20:15;25.20;64.40
10123;DHT22;5101;49.038;8.710;2022-07-01T13:22:41;25.10;64.00
10123;DHT22;5101;49.038;8.710;2022-07-01T13:25:07;25.10;64.20
10123;DHT22;5101;49.038;8.710;2022-07-01T13:27:33;25.10;64.60
10123;DHT22;5101;49.038;8.710;2022-07-01T13:29:58;25.30;65.50
10123;DHT22;5101;49.038;8.710;2022-07-01T13:32:24;25.30;64.30
10123;DHT22;5101;49.038;8.710;2022-07-01T13:34:50;25.20;62.90
10123;DHT22;5101;49.038;8.710;2022-07-01T13:37:15;25.20;60.90
10123;DHT22;5101;49.038;8.710;2022-07-01T13:39:41;25.10;60.00
10123;DHT22;5101;49.038;8.710;2022-07-01T13:42:07;24.90;61.90
10123;DHT22;5101;49.038;8.710;2022-07-01T13:44:33;24.70;62.90
10123;DHT22;5101;49.038;8.710;2022-07-01T13:46:59;24.50;64.10
10123;DHT22;5101;49.038;8.710;2022-07-01T13:49:25;24.50;63.90
10123;DHT22;5101;49.038;8.710;2022-07-01T13:51:51;24.50;62.30
10123;DHT22;5101;49.038;8.710;2022-07-01T13:54:16;24.60;60.70
10123;DHT22;5101;49.038;8.710;2022-07-01T13:56:42;24.70;60.80
10123;DHT22;5101;49.038;8.710;2022-07-01T13:59:08;24.80;61.10
10123;DHT22;5101;49.038;8.710;2022-07-01T14:01:34;24.90;62.10
10123;DHT22;5101;49.038;8.710;2022-07-01T14:04:00;24.90;61.20
10123;DHT22;5101;49.038;8.710;2022-07-01T14:06:25;24.90;60.00
10123;DHT22;5101;49.038;8.710;2022-07-01T14:08:51;24.90;60.10
10123;DHT22;5101;49.038;8.710;2022-07-01T14:11:16;24.90;60.30
10123;DHT22;5101;49.038;8.710;2022-07-01T14:13:42;25.00;60.60
10123;DHT22;5101;49.038;8.710;2022-07-01T14:16:08;25.00;59.30
10123;DHT22;5101;49.038;8.710;2022-07-01T14:18:34;24.80;57.60
10123;DHT22;5101;49.038;8.710;2022-07-01T14:21:04;24.80;58.10
10123;DHT22;5101;49.038;8.710;2022-07-01T14:23:30;24.80;56.30
10123;DHT22;5101;49.038;8.710;2022-07-01T14:25:56;24.80;54.90
10123;DHT22;5101;49.038;8.710;2022-07-01T14:28:22;24.70;53.80
10123;DHT22;5101;49.038;8.710;2022-07-01T14:30:47;24.80;54.00
10123;DHT22;5101;49.038;8.710;2022-07-01T14:33:15;24.80;55.80
10123;DHT22;5101;49.038;8.710;2022-07-01T14:35:41;24.80;56.30
10123;DHT22;5101;49.038;8.710;2022-07-01T14:38:06;24.90;57.40
10123;DHT22;5101;49.038;8.710;2022-07-01T14:40:32;24.70;56.80
10123;DHT22;5101;49.038;8.710;2022-07-01T14:42:58;24.50;54.90
10123;DHT22;5101;49.038;8.710;2022-07-01T14:45:23;24.50;55.30
10123;DHT22;5101;49.038;8.710;2022-07-01T14:47:49;24.50;55.70
10123;DHT22;5101;49.038;8.710;2022-07-01T14:50:15;24.60;55.80
10123;DHT22;5101;49.038;8.710;2022-07-01T14:52:40;24.60;56.10
10123;DHT22;5101;49.038;8.710;2022-07-01T14:55:06;24.50;56.00
10123;DHT22;5101;49.038;8.710;2022-07-01T14:57:32;24.40;56.60
10123;DHT22;5101;49.038;8.710;2022-07-01T14:59:57;24.30;57.00
10123;DHT22;5101;49.038;8.710;2022-07-01T15:02:24;24.30;56.60
10123;DHT22;5101;49.038;8.710;2022-07-01T15:04:49;24.40;57.00
10123;DHT22;5101;49.038;8.710;2022-07-01T15:07:15;24.40;56.50
10123;DHT22;5101;49.038;8.710;2022-07-01T15:09:41;24.50;54.60
10123;DHT22;5101;49.038;8.710;2022-07-01T15:12:07;24.50;54.60
10123;DHT22;5101;49.038;8.710;2022-07-01T15:14:32;24.50;55.70
10123;DHT22;5101;49.038;8.710;2022-07-01T15:16:58;24.50;57.00
10123;DHT22;5101;49.038;8.710;2022-07-01T15:19:25;24.40;56.70
10123;DHT22;5101;49.038;8.710;2022-07-01T15:21:52;24.30;56.70
10123;DHT22;5101;49.038;8.710;2022-07-01T15:24:18;24.30;56.80
10123;DHT22;5101;49.038;8.710;2022-07-01T15:26:43;24.30;56.30
10123;DHT22;5101;49.038;8.710;2022-07-01T15:29:09;24.10;54.90
10123;DHT22;5101;49.038;8.710;2022-07-01T15:31:35;24.10;55.60
10123;DHT22;5101;49.038;8.710;2022-07-01T15:34:00;24.10;55.60
10123;DHT22;5101;49.038;8.710;2022-07-01T15:36:26;24.10;56.60
10123;DHT22;5101;49.038;8.710;2022-07-01T15:38:51;24.10;59.50
10123;DHT22;5101;49.038;8.710;2022-07-01T15:41:20;24.00;60.40
10123;DHT22;5101;49.038;8.710;2022-07-01T15:43:45;23.80;59.60
10123;DHT22;5101;49.038;8.710;2022-07-01T15:46:11;23.80;59.30
10123;DHT22;5101;49.038;8.710;2022-07-01T15:48:37;23.80;59.40
10123;DHT22;5101;49.038;8.710;2022-07-01T15:51:03;23.80;59.30
10123;DHT22;5101;49.038;8.710;2022-07-01T15:53:29;23.70;58.30
10123;DHT22;5101;49.038;8.710;2022-07-01T15:55:54;23.70;58.60
10123;DHT22;5101;49.038;8.710;2022-07-01T15:58:20;23.70;59.40
10123;DHT22;5101;49.038;8.710;2022-07-01T16:00:47;23.80;60.60
10123;DHT22;5101;49.038;8.710;2022-07-01T16:03:14;23.70;62.80
10123;DHT22;5101;49.038;8.710;2022-07-01T16:05:42;23.70;63.20
10123;DHT22;5101;49.038;8.710;2022-07-01T16:08:12;23.70;63.00